UUUK1: Marmaton R nr Uniontown nr Ft Scott

                                SHEF ID:       UUUK1     MARMATON R NR UNIONTOWN, KS
STATION TYPE:

PRECIP STAGE RIV-FLOW BAT-LOAD
in ft cfs volt
Ccp-Rev Ccp-Rev Ccp-Rev Ccp-Rev
(America/Chicago)
03/15 00:00 ---- 1.92 201 12.54
03/15 01:00 ---- 1.83 188 12.53
03/15 02:00 ---- 1.75 177 12.50
03/15 03:00 ---- 1.67 166 12.47
03/15 04:00 ---- 1.59 156 12.46
03/15 05:00 ---- 1.54 151 12.44
03/15 06:00 ---- 1.48 144 12.44
03/15 07:00 ---- 1.43 138 12.42
03/15 08:00 ---- 1.37 132 12.42
03/15 09:00 ---- 1.33 127 12.40
03/15 10:00 ---- 1.29 123 12.44
03/15 11:00 ---- 1.26 120 13.35
03/15 12:00 ---- 1.23 117 13.13
03/15 13:00 ---- 1.19 113 13.12
03/15 14:00 ---- 1.17 110 13.13
03/15 15:00 ---- 1.14 107 13.12
03/15 16:00 ---- 1.11 104 13.10
03/15 17:00 ---- 1.09 102 13.05
03/15 18:00 ---- 1.06 99 13.03
03/15 19:00 ---- 1.04 97 13.03
03/15 20:00 ---- 1.02 95 12.73
03/15 21:00 ---- 1.00 93 12.67
03/15 22:00 ---- 0.98 91 12.61
03/15 23:00 ---- 0.96 89 12.55
Data processed at Sat 16Mar2024 04:09 GMT

Parsing this webpage?

Checkout our new Data API! CWMSDataAPI (CDA)

Timeseries IDs (TSIDs)

TSIDs used from left to right in the data table
UNIO.Precip-Inc.Total.1Hour.1Hour.Ccp-Rev
UNIO.Stage.Inst.1Hour.0.Ccp-Rev
UNIO.Flow.Inst.1Hour.0.Ccp-Rev
UNIO.Volt-Battery Load.Inst.1Hour.0.Ccp-Rev

                            

All information presented herein is the property of the government of the United States of America and may be revised or deleted at any time without prior notice. Dissemination of this information without the expressed written consent of the Public Affairs Office, Tulsa District U.S. Army Corps of Engineers is strictly prohibited. These data are gathered electronically and, as presented, have NOT undergone any form of quality control. These data are NOT guaranteed to be valid or correct.